TFM - Tactical Decision Aid (Experimental) INFO Settings

ID: Runway Winds: METAR Board: Map:

Katl - Atlanta-Hartsfield Jackson Intl

Updated at: 1423 UTC 30 Oct 2014
Latest TAF at: 1400 UTC 30 Oct 2014

TAF Board

Time1352Z30/15Z30/16Z30/17Z30/18Z30/19Z30/20Z30/21Z30/22Z30/23Z31/00Z31/01Z31/02Z31/03Z
TypeOBSPRVL
  [TEMP]  
PRVLPRVLPRVLPRVLPRVLPRVLPRVLPRVLPRVLPRVLPRVLPRVL
VIS10>6>6>6>6>6>6>6>6>6>6>6>6>6
CIG----
  [--]  
------------------------
CoverFEWSKC
  [SCT]  
SKCSKCSKCSKCSKCSKCSKCSKCSKCSKCFEWFEW
FltCat--VFR
  [VFR]  
VFRVFRVFRVFRVFRVFRVFRVFRVFRVFRVFRVFR
WX----
  [--]  
------------------------
WDir350340
[340]
340340340340340340340340340340310310
WSpd68
  [8]  
888888888855
WGst----
  [--]  
------------------------
TAF
KATL 301400Z 3014/3118 34008KT P6SM SKC
  TEMPO 3014/3016 SCT025
  FM310200 31005KT P6SM FEW250
  FM311200 32006KT P6SM SCT120


METAR
KATL 301352Z 35006KT 10SM FEW050 12/06 A3009 RMK AO2 SLP190 T01220056

TAF/METAR Board Legend

Hazard VFR MVFR IFR LIFR
Visibility (sm) >5 3≤X≤5 1≤X<3 <1
Ceiling (100 ft) >30 10≤X≤30 5≤X<10 <5
Wind Speed (kt) <10 10≤X<20 20≤X<30 ≥30
Wind Gust (kt) <15 15≤X<25 25≤X<35 ≥35
Weather No Wx Reported VCTS,-TS,-FZRA TS,FZRA +TS,+FZRA




Page loaded:  14:23 UTC  |   07:23 AM Pacific  |   08:23 AM Mountain  |   09:23 AM Central  |   10:23 AM Eastern

 

ADVISORIES

FORECASTS

FORECASTS

OBSERVATIONS

USER TOOLS

ABOUT US